createdAt,value
2022-07-28T00:00:08.357Z,6.20
2022-07-28T00:15:09.608Z,7.70
2022-07-28T00:30:09.761Z,3.90
2022-07-28T00:45:11.325Z,8.40
2022-07-28T01:00:11.266Z,6.90
2022-07-28T01:15:11.922Z,8.40
2022-07-28T01:30:12.535Z,6.40
2022-07-28T01:45:12.772Z,5.90
2022-07-28T02:00:12.944Z,10.90
2022-07-28T02:15:13.571Z,7.60
2022-07-28T02:30:14.205Z,5.10
2022-07-28T02:45:14.406Z,8.00
2022-07-28T03:00:14.633Z,6.80
2022-07-28T03:15:14.788Z,7.60
2022-07-28T03:30:15.040Z,7.40
2022-07-28T03:45:15.219Z,8.60
2022-07-28T04:00:15.463Z,7.30
2022-07-28T04:15:15.615Z,9.30
2022-07-28T04:30:16.823Z,5.80
2022-07-28T04:45:17.459Z,9.60
2022-07-28T05:00:17.739Z,6.40
2022-07-28T05:15:17.954Z,5.20
2022-07-28T05:30:18.106Z,9.20
2022-07-28T05:45:18.277Z,3.70
2022-07-28T06:00:18.885Z,5.20
2022-07-28T06:15:19.580Z,9.30
2022-07-28T06:30:19.713Z,4.70
2022-07-28T06:45:21.146Z,9.70
2022-07-28T07:00:22.227Z,3.80
2022-07-28T07:15:23.298Z,196.00
2022-07-28T07:30:23.517Z,537.90
2022-07-28T07:45:23.709Z,1787.10
2022-07-28T08:00:28.722Z,1999.90
2022-07-28T08:15:29.117Z,1999.90
2022-07-28T08:30:32.683Z,1999.90
2022-07-28T08:45:37.025Z,1999.90
2022-07-28T09:00:37.182Z,1999.90
2022-07-28T09:15:38.403Z,1999.90
2022-07-28T09:30:51.822Z,1999.90
2022-07-28T09:45:45.678Z,1999.90
2022-07-28T10:00:45.759Z,1999.90
2022-07-28T10:15:50.840Z,1999.90
2022-07-28T10:30:51.037Z,1999.90
2022-07-28T10:46:05.514Z,236.50
2022-07-28T11:01:05.108Z,12.30
2022-07-28T11:16:02.510Z,10.00
2022-07-28T11:31:02.721Z,46.90
2022-07-28T11:46:03.010Z,393.70
2022-07-28T12:01:03.059Z,466.30
2022-07-28T12:16:03.333Z,1708.50
2022-07-28T12:31:03.457Z,1158.70
2022-07-28T12:46:08.770Z,1999.90
2022-07-28T13:01:08.816Z,1999.90
2022-07-28T13:16:09.133Z,1999.90
2022-07-28T13:31:09.289Z,1999.90
2022-07-28T13:46:09.557Z,1999.90
2022-07-28T14:01:09.892Z,1999.90
2022-07-28T14:16:14.616Z,1999.90
2022-07-28T14:31:15.222Z,1999.90
2022-07-28T14:46:20.868Z,1999.90
2022-07-28T15:01:20.456Z,1999.90
2022-07-28T15:16:20.626Z,1999.90
2022-07-28T15:31:20.933Z,1999.90
2022-07-28T15:46:21.048Z,1999.90
2022-07-28T16:01:21.251Z,1999.90
2022-07-28T16:16:21.859Z,1999.90
2022-07-28T16:31:22.586Z,1999.90
2022-07-28T16:46:22.745Z,1999.90
2022-07-28T17:01:23.413Z,1999.90
2022-07-28T17:16:23.633Z,1999.90
2022-07-28T17:31:24.279Z,1999.90
2022-07-28T17:46:26.729Z,1999.90
2022-07-28T18:01:27.598Z,857.90
2022-07-28T18:16:27.798Z,1004.20
2022-07-28T18:31:27.968Z,462.50
2022-07-28T18:46:28.099Z,290.60
2022-07-28T19:01:28.263Z,134.80
2022-07-28T19:16:28.415Z,42.70
2022-07-28T19:31:28.617Z,22.70
2022-07-28T19:46:28.795Z,12.60
2022-07-28T20:01:29.410Z,1999.90
2022-07-28T20:16:30.173Z,1999.90
2022-07-28T20:31:30.747Z,1999.90
2022-07-28T20:46:30.984Z,1999.90
2022-07-28T21:01:31.079Z,1999.90
2022-07-28T21:16:31.419Z,1999.90
2022-07-28T21:31:31.473Z,1999.90
2022-07-28T21:46:31.646Z,1999.90
2022-07-28T22:01:32.021Z,395.80
2022-07-28T22:16:32.833Z,249.60
2022-07-28T22:31:33.179Z,182.80
2022-07-28T22:46:33.383Z,109.10
2022-07-28T23:01:33.517Z,65.90
2022-07-28T23:16:33.686Z,76.70
2022-07-28T23:31:34.373Z,6.80
2022-07-28T23:46:35.086Z,6.00
